Time;durP1;ratioP1;P1;durP2;ratioP2;P2;SDS_P1;SDS_P2;PMS_P1;PMS_P2;Temp;Humidity;BMP_temperature;BMP_pressure;BME280_temperature;BME280_humidity;BME280_pressure;Samples;Min_cycle;Max_cycle;Signal;HPM_P1;HPM_P2
2023/01/26 00:02:25;;;;;;;53.53;19.10;;;;;;;7.82;100.00;96730.81;5028559;28;20081;-50
2023/01/26 00:04:54;;;;;;;33.67;14.98;;;;;;;7.66;100.00;96727.69;5023738;28;20172;-49
2023/01/26 00:07:22;;;;;;;29.48;13.98;;;;;;;7.97;100.00;96728.75;5035718;28;20116;-50
2023/01/26 00:09:50;;;;;;;32.03;13.85;;;;;;;7.97;100.00;96723.50;5026319;28;20088;-50
2023/01/26 00:12:20;;;;;;;34.25;15.02;;;;;;;7.97;100.00;96720.88;5022907;28;20481;-47
2023/01/26 00:14:51;;;;;;;32.90;14.33;;;;;;;7.88;100.00;96714.56;5028820;28;20088;-49
2023/01/26 00:17:26;;;;;;;31.33;12.35;;;;;;;7.40;100.00;96714.84;5032504;28;20099;-49
2023/01/26 00:19:56;;;;;;;31.10;14.02;;;;;;;7.22;100.00;96714.44;5024308;28;20080;-47
2023/01/26 00:22:26;;;;;;;30.60;15.13;;;;;;;6.48;100.00;96720.94;5026842;28;20108;-49
2023/01/26 00:24:54;;;;;;;31.73;14.27;;;;;;;7.05;100.00;96707.84;5029957;28;20080;-46
2023/01/26 00:27:24;;;;;;;34.95;14.63;;;;;;;6.77;100.00;96710.88;5025941;28;20081;-48
2023/01/26 00:29:52;;;;;;;35.67;15.87;;;;;;;6.87;100.00;96704.84;5025989;28;20065;-46
2023/01/26 00:32:20;;;;;;;36.47;16.08;;;;;;;6.74;100.00;96705.88;5028471;28;20081;-47
2023/01/26 00:34:48;;;;;;;34.45;14.32;;;;;;;6.47;100.00;96707.00;5028499;28;20081;-53
2023/01/26 00:37:17;;;;;;;35.70;15.48;;;;;;;6.55;100.00;96711.66;5025722;28;20100;-47
2023/01/26 00:39:45;;;;;;;31.48;13.40;;;;;;;6.89;100.00;96700.31;5031906;28;20473;-51
2023/01/26 00:42:14;;;;;;;31.33;13.40;;;;;;;6.81;100.00;96700.09;5025088;28;20092;-47
2023/01/26 00:44:44;;;;;;;33.28;13.30;;;;;;;6.48;100.00;96710.44;5028734;28;20492;-50
2023/01/26 00:47:13;;;;;;;36.90;14.87;;;;;;;6.49;100.00;96701.63;5022956;28;20092;-50
2023/01/26 00:49:42;;;;;;;31.60;14.40;;;;;;;6.19;100.00;96700.31;5025962;28;20081;-49
2023/01/26 00:52:10;;;;;;;33.40;14.25;;;;;;;5.70;100.00;96704.63;5026160;28;20085;-50
2023/01/26 00:54:39;;;;;;;30.55;13.82;;;;;;;6.44;100.00;96695.91;5027683;28;20107;-49
2023/01/26 00:57:07;;;;;;;33.42;13.85;;;;;;;6.28;100.00;96698.81;5027526;28;20112;-48
2023/01/26 00:59:35;;;;;;;28.85;12.80;;;;;;;7.10;100.00;96681.28;5027455;28;20087;-51
2023/01/26 01:02:05;;;;;;;34.63;14.38;;;;;;;6.29;100.00;96690.81;5032714;28;20072;-48
2023/01/26 01:04:34;;;;;;;35.85;14.45;;;;;;;6.26;100.00;96688.44;5023018;28;20080;-53
2023/01/26 01:07:02;;;;;;;29.85;14.57;;;;;;;5.99;100.00;96686.06;5024606;28;20073;-48
2023/01/26 01:09:31;;;;;;;34.60;14.00;;;;;;;6.55;100.00;96686.28;5025010;28;20073;-50
2023/01/26 01:11:59;;;;;;;31.70;13.75;;;;;;;6.57;100.00;96678.31;5025229;28;20084;-49
2023/01/26 01:14:27;;;;;;;33.90;14.63;;;;;;;6.11;100.00;96692.19;5023842;28;20096;-51
2023/01/26 01:16:56;;;;;;;29.30;13.63;;;;;;;5.87;100.00;96695.59;5034439;28;20084;-51
2023/01/26 01:19:26;;;;;;;33.30;13.60;;;;;;;5.94;100.00;96691.59;5024504;28;20100;-49
2023/01/26 01:21:54;;;;;;;31.42;12.63;;;;;;;6.27;100.00;96686.66;5032669;28;20537;-46
2023/01/26 01:24:22;;;;;;;34.85;14.13;;;;;;;6.32;100.00;96693.22;5022539;28;20085;-48
2023/01/26 01:26:51;;;;;;;29.77;12.98;;;;;;;6.18;100.00;96696.03;5032094;28;20083;-52
2023/01/26 01:29:19;;;;;;;29.77;12.43;;;;;;;6.56;100.00;96695.00;5025421;28;20081;-51
2023/01/26 01:31:47;;;;;;;30.65;11.95;;;;;;;6.17;100.00;96700.44;5023743;28;20092;-51
2023/01/26 01:34:16;;;;;;;29.35;12.27;;;;;;;6.53;100.00;96682.13;5026260;28;20089;-50
2023/01/26 01:36:46;;;;;;;27.08;12.43;;;;;;;7.24;100.00;96683.69;5022444;28;20073;-51
2023/01/26 01:39:14;;;;;;;29.83;12.73;;;;;;;7.44;100.00;96679.53;5022593;28;20520;-48
2023/01/26 01:41:41;;;;;;;26.50;12.07;;;;;;;7.48;100.00;96680.13;5031149;28;20061;-48
2023/01/26 01:44:18;;;;;;;30.88;12.75;;;;;;;7.09;100.00;96684.88;5031425;28;20088;-48
2023/01/26 01:46:49;;;;;;;31.58;13.55;;;;;;;6.96;100.00;96684.97;5018042;28;20470;-49
2023/01/26 01:49:20;;;;;;;33.08;13.50;;;;;;;7.29;100.00;96678.91;5022629;28;20097;-47
2023/01/26 01:51:53;;;;;;;32.13;12.98;;;;;;;6.95;100.00;96678.06;5031673;28;20081;-49
2023/01/26 01:54:27;;;;;;;29.98;12.65;;;;;;;6.47;100.00;96687.78;5029038;28;20085;-51
2023/01/26 01:56:58;;;;;;;26.23;12.40;;;;;;;6.78;100.00;96675.84;5031958;28;20077;-47
2023/01/26 01:59:26;;;;;;;;;;;;;;;6.71;100.00;96672.91;5022839;28;20076;-46
2023/01/26 02:01:55;;;;;;;28.88;12.02;;;;;;;6.57;100.00;96679.16;5029442;28;19963;-50
2023/01/26 02:04:24;;;;;;;29.23;11.97;;;;;;;6.89;100.00;96674.13;5023651;28;20529;-50
2023/01/26 02:06:57;;;;;;;30.10;11.07;;;;;;;6.40;100.00;96671.69;5025541;28;20108;-47
2023/01/26 02:12:13;;;;;;;26.85;12.50;;;;;;;6.10;100.00;96673.03;4990353;28;20081;-50
2023/01/26 02:14:41;;;;;;;27.35;11.80;;;;;;;6.58;100.00;96664.28;5030642;28;20755;-47
2023/01/26 02:17:10;;;;;;;29.05;12.35;;;;;;;5.94;100.00;96654.97;5023156;28;20749;-49
2023/01/26 02:19:45;;;;;;;26.58;11.73;;;;;;;5.94;100.00;96657.59;5032181;28;20104;-50
2023/01/26 02:22:20;;;;;;;29.05;12.75;;;;;;;5.72;100.00;96662.69;5019899;28;20085;-50
2023/01/26 02:24:48;;;;;;;29.13;12.48;;;;;;;5.88;100.00;96654.53;5029123;28;20076;-48
2023/01/26 02:27:18;;;;;;;31.83;12.65;;;;;;;6.03;100.00;96653.47;5025113;28;20092;-50
2023/01/26 02:29:46;;;;;;;26.57;12.40;;;;;;;6.24;100.00;96640.59;5023567;28;20088;-46
2023/01/26 02:32:15;;;;;;;31.20;12.82;;;;;;;5.47;100.00;96647.88;5023972;28;20507;-49
2023/01/26 02:34:43;;;;;;;25.80;11.30;;;;;;;5.88;100.00;96651.91;5025055;28;20085;-51
2023/01/26 02:37:14;;;;;;;29.13;11.73;;;;;;;5.67;100.00;96641.22;5024073;28;20088;-48
2023/01/26 02:39:47;;;;;;;25.48;11.05;;;;;;;6.00;100.00;96638.00;5031375;28;20069;-51
2023/01/26 02:45:03;;;;;;;27.80;11.80;;;;;;;6.10;100.00;96627.69;5017628;28;20085;-52
2023/01/26 02:47:31;;;;;;;30.90;12.50;;;;;;;5.67;100.00;96625.53;5028167;28;20073;-51
2023/01/26 02:49:59;;;;;;;30.45;12.18;;;;;;;5.75;100.00;96625.81;5031042;28;20608;-48
2023/01/26 02:52:29;;;;;;;27.75;11.25;;;;;;;6.68;100.00;96618.09;5028820;28;20137;-47
2023/01/26 02:57:44;;;;;;;27.52;12.82;;;;;;;6.51;100.00;96610.69;5027426;28;20085;-47
2023/01/26 03:00:17;;;;;;;27.38;11.70;;;;;;;6.20;100.00;96607.72;5027919;28;20147;-50
2023/01/26 03:02:46;;;;;;;26.30;12.38;;;;;;;6.58;100.00;96604.03;5029033;28;20080;-48
2023/01/26 03:05:15;;;;;;;29.25;13.18;;;;;;;6.23;100.00;96601.41;5028993;28;20193;-47
2023/01/26 03:07:43;;;;;;;31.42;12.13;;;;;;;7.01;100.00;96600.72;5030052;28;20084;-50
2023/01/26 03:10:12;;;;;;;28.38;12.25;;;;;;;6.32;100.00;96593.69;5024579;28;20076;-51
2023/01/26 03:12:41;;;;;;;25.58;10.57;;;;;;;6.96;100.00;96595.84;5028600;28;20088;-51
2023/01/26 03:29:04;;;;;;;27.63;11.68;;;;;;;6.45;100.00;96582.31;5030809;28;20096;-48
2023/01/26 03:31:32;;;;;;;25.30;12.13;;;;;;;6.42;100.00;96594.69;5029325;28;20076;-49
2023/01/26 03:34:02;;;;;;;24.73;11.60;;;;;;;6.12;100.00;96589.94;5025193;28;20092;-51
2023/01/26 03:36:30;;;;;;;23.53;11.17;;;;;;;5.95;100.00;96592.97;5024913;28;20128;-48
2023/01/26 03:38:58;;;;;;;26.80;10.75;;;;;;;6.60;100.00;96589.00;5027343;28;20100;-48
2023/01/26 03:58:04;;;;;;;25.67;11.38;;;;;;;6.86;100.00;96581.78;5024636;28;20080;-50
2023/01/26 04:00:32;;;;;;;24.27;11.07;;;;;;;7.01;100.00;96588.44;5027431;28;20081;-49
2023/01/26 04:08:44;;;;;;;21.08;10.60;;;;;;;5.26;100.00;96592.69;5015655;28;20487;-51
2023/01/26 04:11:12;;;;;;;24.17;10.20;;;;;;;5.34;100.00;96585.16;5027695;28;20079;-47
2023/01/26 04:22:00;;;;;;;21.15;9.52;;;;;;;6.46;100.00;96574.31;5028837;28;20085;-49
2023/01/26 04:24:28;;;;;;;21.90;10.00;;;;;;;6.31;100.00;96580.75;5031209;28;20560;-49
2023/01/26 04:26:57;;;;;;;22.15;9.88;;;;;;;6.44;100.00;96578.88;5031884;28;20091;-48
2023/01/26 04:29:25;;;;;;;23.13;10.73;;;;;;;6.05;100.00;96580.06;5031904;28;20084;-49
2023/01/26 04:31:53;;;;;;;24.15;9.85;;;;;;;5.93;100.00;96572.16;5026165;28;20149;-50
2023/01/26 04:34:21;;;;;;;21.13;10.07;;;;;;;6.44;100.00;96578.03;5026277;28;20096;-50
2023/01/26 04:36:50;;;;;;;26.60;10.63;;;;;;;6.65;100.00;96579.00;5025205;28;20096;-48
2023/01/26 04:39:19;;;;;;;25.00;10.35;;;;;;;5.75;100.00;96578.72;5026783;28;20052;-50
2023/01/26 04:41:48;;;;;;;23.43;10.50;;;;;;;6.39;100.00;96579.19;5025903;28;20084;-49
2023/01/26 04:44:16;;;;;;;23.77;10.15;;;;;;;7.14;100.00;96562.09;5026745;28;20503;-52
2023/01/26 04:46:46;;;;;;;25.85;9.52;;;;;;;6.90;100.00;96567.47;5029235;28;20096;-49
2023/01/26 04:49:14;;;;;;;22.38;9.65;;;;;;;7.04;100.00;96561.16;5025701;28;20088;-50
2023/01/26 04:51:42;;;;;;;23.60;10.30;;;;;;;6.80;100.00;96563.88;5026966;28;20077;-49
2023/01/26 04:54:11;;;;;;;23.35;11.15;;;;;;;7.32;100.00;96563.25;5022178;28;20814;-52
2023/01/26 04:56:41;;;;;;;26.05;10.55;;;;;;;7.33;100.00;96561.47;5024194;28;20196;-52
2023/01/26 04:59:11;;;;;;;24.27;10.18;;;;;;;7.65;100.00;96553.66;5026398;28;20081;-51
2023/01/26 05:01:41;;;;;;;22.83;10.77;;;;;;;6.90;100.00;96567.47;5027686;28;20749;-49
2023/01/26 05:04:11;;;;;;;26.27;10.63;;;;;;;7.48;100.00;96562.88;5023212;28;20089;-48
2023/01/26 05:06:40;;;;;;;24.20;11.10;;;;;;;7.52;100.00;96560.84;5025871;28;20081;-52
2023/01/26 05:09:09;;;;;;;24.98;10.80;;;;;;;7.16;100.00;96568.06;5026052;28;20474;-48
2023/01/26 05:11:37;;;;;;;23.63;10.00;;;;;;;7.90;94.74;96559.53;5027254;28;20072;-46
2023/01/26 05:14:07;;;;;;;22.40;10.13;;;;;;;8.03;88.89;96561.00;5024422;28;20516;-52
2023/01/26 05:16:35;;;;;;;22.43;10.60;;;;;;;7.89;88.39;96558.69;5023415;28;20095;-50
2023/01/26 05:19:04;;;;;;;19.92;9.30;;;;;;;6.98;96.31;96575.56;5027922;28;20085;-49
2023/01/26 05:21:32;;;;;;;22.50;10.02;;;;;;;6.89;100.00;96574.50;5026281;28;20627;-49
2023/01/26 05:24:00;;;;;;;20.67;10.15;;;;;;;7.63;97.55;96566.03;5026131;28;20080;-50
2023/01/26 05:26:28;;;;;;;23.75;9.98;;;;;;;7.57;95.84;96563.91;5022696;28;20096;-52
2023/01/26 05:28:57;;;;;;;23.88;10.23;;;;;;;6.91;97.78;96574.38;5022409;28;20095;-48
2023/01/26 05:31:26;;;;;;;23.90;10.38;;;;;;;7.14;94.61;96562.91;5016839;28;20086;-55
2023/01/26 05:33:55;;;;;;;20.70;9.63;;;;;;;7.51;93.26;96564.44;5028182;28;20085;-49
2023/01/26 05:36:23;;;;;;;24.42;10.27;;;;;;;7.19;100.00;96570.44;5028268;28;20561;-50
2023/01/26 05:38:51;;;;;;;24.55;10.57;;;;;;;7.35;98.92;96564.81;5019743;28;20720;-49
2023/01/26 05:41:19;;;;;;;19.20;9.20;;;;;;;7.35;100.00;96565.63;5025533;28;20089;-48
2023/01/26 05:43:48;;;;;;;23.52;10.70;;;;;;;7.23;97.14;96564.00;5025361;28;20435;-47
2023/01/26 05:46:16;;;;;;;22.92;10.35;;;;;;;7.22;98.13;96564.94;5027350;28;20526;-47
2023/01/26 05:48:46;;;;;;;21.58;9.43;;;;;;;6.30;100.00;96572.06;5025573;28;20069;-52
2023/01/26 05:51:14;;;;;;;22.42;10.63;;;;;;;6.43;100.00;96571.94;5024503;28;20081;-50
2023/01/26 05:53:42;;;;;;;23.45;9.40;;;;;;;5.92;100.00;96578.34;5019028;28;20077;-48
2023/01/26 05:56:10;;;;;;;21.05;9.38;;;;;;;6.01;100.00;96571.59;5025915;28;20088;-46
2023/01/26 05:58:39;;;;;;;20.67;9.95;;;;;;;5.93;100.00;96573.94;5021048;28;20518;-49
2023/01/26 06:01:07;;;;;;;20.70;8.98;;;;;;;5.83;100.00;96570.31;5025402;28;20104;-53
2023/01/26 06:03:36;;;;;;;20.67;9.40;;;;;;;6.59;100.00;96572.44;5028395;28;20080;-47
2023/01/26 06:06:06;;;;;;;22.92;9.77;;;;;;;6.44;100.00;96572.78;5023865;28;20088;-52
2023/01/26 06:08:34;;;;;;;20.85;9.88;;;;;;;6.51;100.00;96566.97;5023500;28;20073;-50
2023/01/26 06:11:02;;;;;;;22.17;9.68;;;;;;;6.52;100.00;96565.19;5024554;28;20084;-50
2023/01/26 06:13:30;;;;;;;21.88;9.57;;;;;;;6.25;100.00;96573.34;5027674;28;20081;-52
2023/01/26 06:16:00;;;;;;;21.48;9.77;;;;;;;6.30;100.00;96569.44;5016681;28;20084;-51
2023/01/26 06:18:28;;;;;;;20.33;9.98;;;;;;;5.80;100.00;96573.16;5024385;28;20094;-47
2023/01/26 06:20:58;;;;;;;22.27;9.88;;;;;;;6.10;100.00;96576.16;5015047;28;20471;-53
2023/01/26 06:23:28;;;;;;;21.63;9.95;;;;;;;5.60;100.00;96577.22;5022732;28;20203;-50
2023/01/26 06:25:58;;;;;;;22.70;10.33;;;;;;;6.49;100.00;96576.72;5021888;28;20084;-52
2023/01/26 06:28:27;;;;;;;21.75;10.20;;;;;;;6.17;100.00;96579.16;5024711;28;20503;-48
2023/01/26 06:30:59;;;;;;;19.60;9.50;;;;;;;5.64;100.00;96584.75;5017328;28;20530;-49
2023/01/26 06:33:28;;;;;;;23.05;10.18;;;;;;;6.24;100.00;96576.91;5023183;28;20081;-51
2023/01/26 06:35:56;;;;;;;23.35;10.65;;;;;;;6.73;100.00;96568.78;5022923;28;20172;-50
2023/01/26 06:38:24;;;;;;;26.33;10.77;;;;;;;6.07;100.00;96589.47;5018163;28;20493;-54
2023/01/26 06:40:54;;;;;;;22.17;9.68;;;;;;;6.66;100.00;96589.38;5018727;28;20529;-51
2023/01/26 06:43:22;;;;;;;20.17;9.75;;;;;;;6.25;100.00;96573.34;5023288;28;20089;-51
2023/01/26 06:45:51;;;;;;;20.10;9.32;;;;;;;6.94;100.00;96570.69;5026087;28;20077;-49
2023/01/26 06:48:19;;;;;;;22.65;9.77;;;;;;;6.67;100.00;96566.63;5020921;28;20085;-49
2023/01/26 06:50:47;;;;;;;22.17;9.60;;;;;;;6.52;100.00;96571.25;5019562;28;20442;-47
2023/01/26 06:53:29;;;;;;;20.67;9.88;;;;;;;7.14;100.00;96565.53;5023159;28;20091;-52
2023/01/26 06:55:59;;;;;;;21.27;9.60;;;;;;;7.26;100.00;96565.53;5026774;28;20085;-47
2023/01/26 06:58:27;;;;;;;22.60;9.43;;;;;;;7.64;94.69;96564.25;5023558;28;20540;-48
2023/01/26 07:00:56;;;;;;;21.02;9.90;;;;;;;7.36;89.15;96561.22;5024668;28;20092;-48
2023/01/26 07:03:24;;;;;;;23.75;10.32;;;;;;;7.32;92.33;96560.63;5025923;28;20092;-49
2023/01/26 07:05:53;;;;;;;18.70;9.00;;;;;;;7.13;96.20;96561.25;5025515;28;20096;-49
2023/01/26 07:08:21;;;;;;;21.15;9.48;;;;;;;7.25;93.31;96561.25;5025571;28;20471;-51
2023/01/26 07:10:50;;;;;;;22.02;9.70;;;;;;;7.29;94.60;96557.41;5027679;28;20081;-48
2023/01/26 07:13:19;;;;;;;21.52;9.93;;;;;;;7.06;100.00;96561.88;5024737;28;20443;-47
2023/01/26 07:15:48;;;;;;;21.63;10.15;;;;;;;6.53;100.00;96574.69;5019852;28;20077;-47
2023/01/26 07:18:16;;;;;;;23.27;9.07;;;;;;;6.73;100.00;96567.94;5025174;28;20484;-50
2023/01/26 07:20:44;;;;;;;21.27;8.88;;;;;;;7.23;97.83;96564.00;5023302;28;20084;-48
2023/01/26 07:23:12;;;;;;;22.02;9.90;;;;;;;7.60;85.98;96559.28;5020320;28;20088;-52
2023/01/26 07:25:43;;;;;;;21.00;9.43;;;;;;;7.44;85.62;96558.84;5015938;28;20088;-49
2023/01/26 07:28:11;;;;;;;20.92;10.73;;;;;;;6.63;98.38;96563.41;5022782;28;20550;-49
2023/01/26 07:30:41;;;;;;;21.52;9.02;;;;;;;7.19;89.71;96559.97;5027221;28;20835;-50
2023/01/26 07:33:09;;;;;;;17.97;8.50;;;;;;;6.48;100.00;96569.00;5023147;28;20086;-50
2023/01/26 07:35:37;;;;;;;19.08;9.05;;;;;;;7.37;94.24;96560.28;5013047;28;20077;-52
2023/01/26 07:38:06;;;;;;;20.02;9.23;;;;;;;6.69;94.77;96563.88;5025455;28;20172;-47
2023/01/26 07:40:34;;;;;;;20.55;9.23;;;;;;;7.13;91.94;96550.78;5024087;28;20720;-48
2023/01/26 07:43:02;;;;;;;18.95;8.77;;;;;;;7.44;86.66;96550.13;5030714;28;20535;-51
2023/01/26 07:45:31;;;;;;;19.17;9.02;;;;;;;7.45;85.95;96547.38;5027273;28;20073;-51
2023/01/26 07:48:00;;;;;;;17.65;8.75;;;;;;;7.87;81.11;96549.25;5027264;28;20081;-49
2023/01/26 07:50:29;;;;;;;21.35;9.48;;;;;;;7.73;82.37;96540.72;5027637;28;20089;-50
2023/01/26 07:53:00;;;;;;;16.00;7.88;;;;;;;7.11;82.40;96542.19;5030657;28;20077;-53
2023/01/26 07:55:28;;;;;;;18.08;8.30;;;;;;;8.01;75.88;96538.47;5024726;28;20089;-49
2023/01/26 07:57:58;;;;;;;19.50;8.68;;;;;;;7.87;72.88;96542.22;5025615;28;20065;-48
2023/01/26 08:00:26;;;;;;;15.48;8.30;;;;;;;7.68;77.01;96549.94;5026400;28;20085;-51
2023/01/26 08:02:54;;;;;;;15.55;7.80;;;;;;;7.54;77.55;96535.31;5025825;28;20092;-48
2023/01/26 08:05:24;;;;;;;17.50;7.72;;;;;;;7.85;72.33;96534.47;5023962;28;20085;-52
2023/01/26 08:07:53;;;;;;;16.60;8.07;;;;;;;7.72;70.65;96538.22;5023876;28;20077;-52
2023/01/26 08:10:21;;;;;;;15.15;7.95;;;;;;;7.54;77.13;96533.53;5024875;28;20069;-49
2023/01/26 08:12:49;;;;;;;18.50;8.90;;;;;;;7.57;77.17;96538.53;5030427;28;20084;-49
2023/01/26 08:15:18;;;;;;;19.13;9.45;;;;;;;6.85;87.06;96544.25;5016529;28;20085;-49
2023/01/26 08:17:46;;;;;;;21.70;10.60;;;;;;;6.79;93.44;96541.25;5021862;28;20496;-48
2023/01/26 08:20:14;;;;;;;26.15;13.00;;;;;;;6.78;92.76;96535.19;5027368;28;20096;-49
2023/01/26 08:22:44;;;;;;;20.10;9.02;;;;;;;7.05;88.07;96526.09;5026818;28;20083;-49
2023/01/26 08:25:13;;;;;;;14.80;8.60;;;;;;;5.97;100.00;96535.31;5014210;28;20088;-53
2023/01/26 08:27:41;;;;;;;18.58;9.60;;;;;;;6.36;100.00;96539.31;5027509;28;20467;-48
2023/01/26 08:30:11;;;;;;;20.80;8.90;;;;;;;6.78;93.94;96531.72;5017044;28;20077;-48
2023/01/26 08:32:40;;;;;;;17.50;9.32;;;;;;;6.33;100.00;96531.69;5023553;28;20073;-51
2023/01/26 08:35:09;;;;;;;20.17;9.80;;;;;;;6.80;98.07;96535.06;5026051;28;20092;-48
2023/01/26 08:37:37;;;;;;;18.55;9.15;;;;;;;7.22;89.81;96530.00;5023759;28;20095;-50
2023/01/26 08:40:09;;;;;;;16.20;8.00;;;;;;;7.21;91.13;96521.31;5016742;28;20081;-46
2023/01/26 08:42:37;;;;;;;18.50;8.52;;;;;;;7.36;85.69;96525.34;5026331;28;20145;-46
2023/01/26 08:45:07;;;;;;;16.35;7.95;;;;;;;7.02;81.19;96536.81;5025797;28;20088;-46
2023/01/26 08:47:35;;;;;;;15.80;8.10;;;;;;;7.87;76.05;96531.72;5029089;28;20618;-48
2023/01/26 08:50:04;;;;;;;15.25;7.60;;;;;;;8.17;71.00;96524.91;5025645;28;20085;-52
2023/01/26 08:52:32;;;;;;;13.13;7.72;;;;;;;8.24;69.88;96524.25;5023704;28;20090;-52
2023/01/26 08:55:00;;;;;;;16.65;7.93;;;;;;;8.13;68.63;96520.88;5025431;28;20084;-47
2023/01/26 08:57:30;;;;;;;18.02;8.00;;;;;;;7.67;71.75;96528.09;5027598;28;20073;-48
2023/01/26 08:59:58;;;;;;;15.77;8.10;;;;;;;7.83;72.81;96525.88;5024083;28;20085;-48
2023/01/26 09:02:27;;;;;;;16.50;7.95;;;;;;;7.92;73.59;96524.31;5019974;28;20099;-53
2023/01/26 09:04:56;;;;;;;18.88;8.75;;;;;;;8.13;70.34;96521.69;5020664;28;20082;-47
2023/01/26 09:07:24;;;;;;;17.30;8.73;;;;;;;8.33;68.75;96520.03;5027162;28;20557;-48
2023/01/26 09:09:53;;;;;;;16.75;8.30;;;;;;;8.23;70.47;96519.97;5024025;28;20467;-54
2023/01/26 09:12:21;;;;;;;17.35;8.45;;;;;;;7.91;70.47;96525.25;5025433;28;20087;-49
2023/01/26 09:14:51;;;;;;;52.33;21.05;;;;;;;8.12;74.61;96527.06;5029339;28;20091;-50
2023/01/26 09:17:19;;;;;;;63.97;23.33;;;;;;;8.13;72.09;96519.06;5027611;28;20080;-47
2023/01/26 09:19:48;;;;;;;15.55;7.20;;;;;;;7.82;73.33;96532.09;5024941;28;20081;-48
2023/01/26 09:22:16;;;;;;;14.20;7.38;;;;;;;7.83;72.18;96527.69;5026551;28;20094;-48
2023/01/26 09:24:44;;;;;;;14.20;7.13;;;;;;;8.05;69.47;96530.22;5028738;28;20080;-52
2023/01/26 09:27:13;;;;;;;14.50;7.90;;;;;;;8.16;70.13;96531.13;5021064;28;20555;-50
2023/01/26 09:29:41;;;;;;;15.18;7.68;;;;;;;8.34;69.73;96537.44;5028665;28;20081;-52
2023/01/26 09:32:11;;;;;;;15.23;7.97;;;;;;;8.44;68.22;96534.91;5022085;28;20096;-52
2023/01/26 09:34:39;;;;;;;14.03;7.47;;;;;;;8.31;67.40;96533.28;5029338;28;20088;-48
2023/01/26 09:37:07;;;;;;;17.52;8.50;;;;;;;8.29;70.75;96542.25;5016442;28;20104;-47
2023/01/26 09:39:36;;;;;;;16.35;7.97;;;;;;;7.81;70.70;96537.47;5025483;28;20092;-50
2023/01/26 09:42:26;;;;;;;16.65;7.57;;;;;;;7.61;75.28;96541.72;5020699;28;20085;-53
2023/01/26 09:45:03;;;;;;;18.83;8.35;;;;;;;7.46;78.79;96543.78;5022755;28;20081;-49
2023/01/26 09:47:40;;;;;;;14.15;7.57;;;;;;;7.89;74.16;96535.06;5026620;28;20068;-50
2023/01/26 09:50:13;;;;;;;22.98;11.38;;;;;;;7.95;71.12;96531.94;5028409;28;20079;-51
2023/01/26 09:52:48;;;;;;;18.73;9.43;;;;;;;7.67;74.09;96535.13;5017693;28;20037;-50
2023/01/26 09:55:20;;;;;;;14.23;8.02;;;;;;;7.78;71.54;96541.19;5041417;28;20085;-51
2023/01/26 09:57:50;;;;;;;13.10;7.97;;;;;;;7.71;73.38;96539.16;5024694;28;20085;-52
2023/01/26 10:00:22;;;;;;;15.05;8.23;;;;;;;8.13;69.81;96534.00;5028132;28;20088;-47
2023/01/26 10:03:00;;;;;;;15.27;7.68;;;;;;;8.35;66.78;96530.41;5025706;28;20096;-47
2023/01/26 10:05:33;;;;;;;17.20;8.30;;;;;;;8.63;65.63;96526.28;5020049;28;20093;-48
2023/01/26 10:08:04;;;;;;;18.10;7.97;;;;;;;7.63;70.60;96531.09;5022402;28;20081;-50
2023/01/26 10:10:36;;;;;;;14.85;8.70;;;;;;;7.73;65.39;96532.00;5019060;28;20099;-51
2023/01/26 10:13:04;;;;;;;13.80;7.82;;;;;;;7.87;68.51;96534.34;5023436;28;20080;-49
2023/01/26 10:15:37;;;;;;;18.05;8.32;;;;;;;7.87;72.71;96523.84;5021051;28;20064;-50
2023/01/26 10:18:12;;;;;;;14.45;8.05;;;;;;;7.77;73.01;96515.88;5028513;28;20083;-47
2023/01/26 10:20:44;;;;;;;15.90;8.27;;;;;;;8.14;70.07;96509.38;5026539;28;20085;-51
2023/01/26 10:23:15;;;;;;;18.63;9.43;;;;;;;8.49;67.19;96499.38;5023635;28;20534;-48
2023/01/26 10:25:45;;;;;;;12.60;6.28;;;;;;;7.72;67.47;96515.44;5024298;28;20081;-48
2023/01/26 10:28:15;;;;;;;14.80;7.22;;;;;;;7.45;71.52;96512.44;5022637;28;20115;-52
2023/01/26 10:30:45;;;;;;;17.73;8.30;;;;;;;7.89;68.56;96510.59;5027025;28;20084;-49
2023/01/26 10:33:26;;;;;;;14.40;6.72;;;;;;;8.09;65.21;96509.78;5021650;28;20088;-48
2023/01/26 10:35:55;;;;;;;17.00;7.93;;;;;;;7.90;65.64;96507.00;5024970;28;20084;-52
2023/01/26 10:38:27;;;;;;;14.48;7.55;;;;;;;7.51;69.77;96501.44;5020457;28;20082;-49
2023/01/26 10:40:57;;;;;;;17.80;8.52;;;;;;;7.97;68.13;96511.63;5017556;28;20081;-51
2023/01/26 10:43:25;;;;;;;15.88;7.63;;;;;;;8.09;66.67;96499.28;5025770;28;20111;-47
2023/01/26 10:45:54;;;;;;;17.88;8.98;;;;;;;8.12;65.16;96504.28;5024703;28;20104;-49
2023/01/26 10:48:25;;;;;;;19.08;9.05;;;;;;;7.55;70.66;96508.09;5027429;28;20184;-46
2023/01/26 10:50:55;;;;;;;19.05;9.15;;;;;;;7.76;69.04;96502.91;5020861;28;20076;-47
2023/01/26 10:53:25;;;;;;;17.15;7.95;;;;;;;7.92;68.37;96494.59;5026337;28;20450;-50
2023/01/26 10:56:01;;;;;;;20.80;9.55;;;;;;;8.04;68.37;96493.56;5028289;28;20088;-51
2023/01/26 10:58:42;;;;;;;23.63;11.48;;;;;;;8.04;68.84;96488.31;5026500;28;20069;-50
2023/01/26 11:01:11;;;;;;;;;;;;;;;8.61;66.95;96494.88;5023682;28;20547;-50
2023/01/26 11:03:41;;;;;;;20.42;9.25;;;;;;;8.33;67.55;96484.06;5019057;28;19963;-49
2023/01/26 11:06:14;;;;;;;18.27;9.23;;;;;;;8.19;68.82;96481.78;5026972;28;20084;-50
2023/01/26 11:08:43;;;;;;;21.23;9.40;;;;;;;8.17;68.78;96488.94;5019301;28;20096;-50
2023/01/26 11:11:25;;;;;;;22.33;10.50;;;;;;;8.19;70.00;96489.66;5018013;28;20081;-51
2023/01/26 11:14:12;;;;;;;19.55;9.60;;;;;;;8.12;72.66;96491.16;5019614;28;20091;-50
2023/01/26 11:16:42;;;;;;;22.08;10.48;;;;;;;8.15;74.95;96493.47;5023998;28;20089;-51
2023/01/26 11:19:14;;;;;;;20.92;10.57;;;;;;;8.17;73.09;96488.94;5025628;28;20077;-50
2023/01/26 11:21:46;;;;;;;21.92;10.32;;;;;;;8.11;76.57;96484.19;5023739;28;20077;-48
2023/01/26 11:24:19;;;;;;;18.55;9.82;;;;;;;7.83;77.26;96488.31;5020974;28;20084;-49
2023/01/26 11:27:20;;;;;;;21.17;10.00;;;;;;;7.78;81.15;96491.31;5023977;28;20077;-50
2023/01/26 11:30:29;;;;;;;18.98;8.73;;;;;;;7.67;85.23;96490.50;5025043;28;20088;-51
2023/01/26 11:33:02;;;;;;;22.90;10.23;;;;;;;7.61;83.93;96491.88;4978151;28;20089;-49
2023/01/26 11:35:39;;;;;;;20.13;10.13;;;;;;;7.96;79.88;96486.31;5026559;28;20089;-47
2023/01/26 11:38:21;;;;;;;30.73;13.85;;;;;;;7.68;77.77;96487.78;5024539;28;20084;-51
2023/01/26 11:40:55;;;;;;;23.83;10.95;;;;;;;8.12;75.77;96487.66;5026882;28;20084;-52
2023/01/26 11:43:50;;;;;;;22.85;10.27;;;;;;;7.87;77.79;96479.19;5020009;28;20081;-53
2023/01/26 11:46:32;;;;;;;24.15;10.75;;;;;;;7.71;81.61;96476.19;5024572;28;20085;-54
2023/01/26 11:49:11;;;;;;;10.45;6.07;;;;;;;7.23;88.54;96474.81;5023836;28;20447;-53
2023/01/26 11:51:51;;;;;;;18.20;7.95;;;;;;;6.94;98.90;96476.31;5023263;28;20084;-49
2023/01/26 11:54:33;;;;;;;18.92;8.45;;;;;;;7.00;97.00;96475.81;5023764;28;20095;-49
2023/01/26 11:57:07;;;;;;;16.60;7.85;;;;;;;6.83;100.00;96485.03;5025010;28;20692;-47
2023/01/26 11:59:39;;;;;;;20.90;10.70;;;;;;;6.46;100.00;96477.41;5027968;28;20084;-50
2023/01/26 12:02:21;;;;;;;25.88;11.32;;;;;;;7.33;100.00;96473.13;5021415;28;20479;-51
2023/01/26 12:04:54;;;;;;;16.95;7.63;;;;;;;7.12;98.80;96466.97;5030189;28;20581;-51
2023/01/26 12:07:28;;;;;;;23.25;12.02;;;;;;;7.27;100.00;96457.06;5025849;28;20073;-50
2023/01/26 12:09:58;;;;;;;25.02;10.82;;;;;;;7.06;100.00;96459.63;5022155;28;20457;-48
2023/01/26 12:12:33;;;;;;;21.92;10.65;;;;;;;7.44;98.17;96456.50;5021072;28;20073;-46
2023/01/26 12:15:05;;;;;;;19.55;9.82;;;;;;;6.97;100.00;96455.91;5019441;28;20085;-53
2023/01/26 12:17:44;;;;;;;24.58;11.68;;;;;;;6.75;100.00;96455.97;5021923;28;20061;-50
2023/01/26 12:20:23;;;;;;;28.42;12.68;;;;;;;6.31;100.00;96460.28;5025308;28;20096;-46
2023/01/26 12:22:55;;;;;;;14.88;7.72;;;;;;;6.16;100.00;96457.88;5024805;28;20078;-51
2023/01/26 12:25:28;;;;;;;18.15;9.02;;;;;;;6.61;100.00;96444.78;5025217;28;20081;-50
2023/01/26 12:28:02;;;;;;;23.35;10.48;;;;;;;6.27;100.00;96448.38;5030357;28;20069;-49
2023/01/26 12:30:35;;;;;;;14.63;7.88;;;;;;;6.53;100.00;96446.34;5023870;28;20479;-50
2023/01/26 12:33:04;;;;;;;23.13;11.50;;;;;;;7.43;100.00;96438.25;5022814;28;20085;-47